KSBM/SBM METAR and TAF weather

Enter ICAO airport designator
Station Type Date Time Source
KSBM METAR 2021/04/18 02:53 UTC NOAA

KSBM 180253Z AUTO 00000KT 10SM CLR 04/M02 A2995 RMK AO2 SLP146 T00391017 53002


Station Type Date Time Source
KSBM Decoded METAR 2021/04/18 02:53 UTC NOAA

SHEBOYGAN CO MEMORIAL AIRPORT , WI, United States (KSBM) 43-47N 87-51W 232M
Apr 17, 2021 - 10:53 PM EDT / 2021.04.18 0253 UTC
Wind: Calm:0
Visibility: 10 mile(s):0
Sky conditions: clear
Temperature: 39.0 F (3.9 C)
Dew Point: 28.9 F (-1.7 C)
Relative Humidity: 66%
Pressure (altimeter): 29.95 in. Hg (1014 hPa)
Pressure tendency: 0.01 inches (0.2 hPa) higher than three hours ago
ob: KSBM 180253Z AUTO 00000KT 10SM CLR 04/M02 A2995 RMK AO2 SLP146 T00391017 53002
cycle: 3

Station Type Date Time Source
KSBM TAF 2021/04/18 04:36 UTC NOAA

TAF
AMD KSBM 180333Z 1804/1824 09004KT P6SM FEW250
FM181900 22010KT P6SM FEW090
FM182000 09008KT P6SM SCT070

Example: see airport list